sensor_id;sensor_type;location;lat;lon;timestamp;pressure;altitude;pressure_sealevel;temperature;humidity
62942;BME280;49042;47.318;19.874;2022-11-20T00:02:14;100102.78;;;0.50;97.62
62942;BME280;49042;47.318;19.874;2022-11-20T00:05:16;100084.87;;;0.63;97.19
62942;BME280;49042;47.318;19.874;2022-11-20T00:08:18;100064.66;;;0.29;97.98
62942;BME280;49042;47.318;19.874;2022-11-20T00:11:21;100097.47;;;0.60;96.87
62942;BME280;49042;47.318;19.874;2022-11-20T00:14:23;100114.34;;;0.57;97.53
62942;BME280;49042;47.318;19.874;2022-11-20T00:17:25;100113.09;;;0.63;96.80
62942;BME280;49042;47.318;19.874;2022-11-20T00:20:27;100123.06;;;0.59;97.63
62942;BME280;49042;47.318;19.874;2022-11-20T00:23:29;100116.44;;;0.62;97.77
62942;BME280;49042;47.318;19.874;2022-11-20T00:26:30;100108.94;;;0.52;98.56
62942;BME280;49042;47.318;19.874;2022-11-20T00:29:32;100108.75;;;0.62;98.19
62942;BME280;49042;47.318;19.874;2022-11-20T00:32:34;100113.75;;;0.61;98.40
62942;BME280;49042;47.318;19.874;2022-11-20T00:35:36;100099.06;;;0.72;97.88
62942;BME280;49042;47.318;19.874;2022-11-20T00:38:37;100089.56;;;0.57;98.79
62942;BME280;49042;47.318;19.874;2022-11-20T00:41:39;100087.87;;;0.44;99.18
62942;BME280;49042;47.318;19.874;2022-11-20T00:44:41;100081.34;;;0.36;100.00
62942;BME280;49042;47.318;19.874;2022-11-20T00:47:42;100097.91;;;0.67;98.95
62942;BME280;49042;47.318;19.874;2022-11-20T00:50:44;100112.59;;;0.56;99.06
62942;BME280;49042;47.318;19.874;2022-11-20T00:53:46;100110.91;;;0.56;100.00
62942;BME280;49042;47.318;19.874;2022-11-20T00:56:47;100112.09;;;0.61;100.00
62942;BME280;49042;47.318;19.874;2022-11-20T00:59:49;100119.63;;;0.85;99.20
62942;BME280;49042;47.318;19.874;2022-11-20T01:02:51;100121.28;;;0.71;99.49
62942;BME280;49042;47.318;19.874;2022-11-20T01:05:52;100132.00;;;0.91;97.96
62942;BME280;49042;47.318;19.874;2022-11-20T01:08:56;100132.66;;;0.75;99.69
62942;BME280;49042;47.318;19.874;2022-11-20T01:11:58;100123.59;;;0.94;98.44
62942;BME280;49042;47.318;19.874;2022-11-20T01:15:00;100114.28;;;0.69;99.08
62942;BME280;49042;47.318;19.874;2022-11-20T01:18:02;100104.59;;;0.64;99.78
62942;BME280;49042;47.318;19.874;2022-11-20T01:21:06;100094.44;;;0.80;99.04
62942;BME280;49042;47.318;19.874;2022-11-20T01:24:11;100077.16;;;0.77;99.87
62942;BME280;49042;47.318;19.874;2022-11-20T01:27:13;100069.75;;;0.95;98.91
62942;BME280;49042;47.318;19.874;2022-11-20T01:30:15;100075.97;;;0.99;98.44
62942;BME280;49042;47.318;19.874;2022-11-20T01:33:17;100071.22;;;0.78;98.98
62942;BME280;49042;47.318;19.874;2022-11-20T01:36:20;100062.03;;;0.82;99.38
62942;BME280;49042;47.318;19.874;2022-11-20T01:39:24;100060.87;;;0.63;100.00
62942;BME280;49042;47.318;19.874;2022-11-20T01:42:26;100061.97;;;0.80;100.00
62942;BME280;49042;47.318;19.874;2022-11-20T01:52:18;100072.00;;;1.18;98.00
62942;BME280;49042;47.318;19.874;2022-11-20T01:55:24;100072.62;;;1.00;98.93
62942;BME280;49042;47.318;19.874;2022-11-20T01:58:33;100073.81;;;1.05;98.52
62942;BME280;49042;47.318;19.874;2022-11-20T02:01:36;100068.25;;;0.85;100.00
62942;BME280;49042;47.318;19.874;2022-11-20T02:04:40;100058.78;;;0.98;100.00
62942;BME280;49042;47.318;19.874;2022-11-20T02:07:43;100063.72;;;1.09;99.43
62942;BME280;49042;47.318;19.874;2022-11-20T02:10:54;100065.41;;;1.08;99.24
62942;BME280;49042;47.318;19.874;2022-11-20T02:13:56;100080.87;;;1.10;99.18
62942;BME280;49042;47.318;19.874;2022-11-20T02:16:58;100079.31;;;1.12;98.40
62942;BME280;49042;47.318;19.874;2022-11-20T02:19:59;100075.16;;;1.14;98.84
62942;BME280;49042;47.318;19.874;2022-11-20T02:23:10;100069.53;;;1.20;99.10
62942;BME280;49042;47.318;19.874;2022-11-20T02:26:15;100085.06;;;1.08;99.83
62942;BME280;49042;47.318;19.874;2022-11-20T02:29:32;100078.81;;;1.17;98.82
62942;BME280;49042;47.318;19.874;2022-11-20T02:32:36;100073.69;;;1.17;100.00
62942;BME280;49042;47.318;19.874;2022-11-20T02:35:41;100067.13;;;1.36;98.82
62942;BME280;49042;47.318;19.874;2022-11-20T02:38:43;100067.75;;;1.19;98.66
62942;BME280;49042;47.318;19.874;2022-11-20T02:41:46;100062.28;;;1.41;98.39
62942;BME280;49042;47.318;19.874;2022-11-20T02:44:47;100059.50;;;1.52;98.04
62942;BME280;49042;47.318;19.874;2022-11-20T02:47:49;100058.22;;;1.45;97.22
62942;BME280;49042;47.318;19.874;2022-11-20T02:50:52;100057.41;;;1.46;97.98
62942;BME280;49042;47.318;19.874;2022-11-20T02:53:53;100046.87;;;1.27;99.40
62942;BME280;49042;47.318;19.874;2022-11-20T02:56:55;100038.94;;;1.38;99.56
62942;BME280;49042;47.318;19.874;2022-11-20T02:59:57;100040.19;;;1.16;99.32
62942;BME280;49042;47.318;19.874;2022-11-20T03:02:58;100041.38;;;1.21;100.00
62942;BME280;49042;47.318;19.874;2022-11-20T03:06:00;100045.62;;;1.07;100.00
62942;BME280;49042;47.318;19.874;2022-11-20T03:09:02;100036.41;;;1.24;100.00
62942;BME280;49042;47.318;19.874;2022-11-20T03:12:03;100030.37;;;1.24;100.00
62942;BME280;49042;47.318;19.874;2022-11-20T03:15:05;100045.38;;;1.02;100.00
62942;BME280;49042;47.318;19.874;2022-11-20T03:18:07;100057.31;;;1.02;100.00
62942;BME280;49042;47.318;19.874;2022-11-20T03:21:10;100052.66;;;1.23;100.00
62942;BME280;49042;47.318;19.874;2022-11-20T03:24:13;100047.31;;;1.20;100.00
62942;BME280;49042;47.318;19.874;2022-11-20T03:27:15;100047.81;;;1.14;100.00
62942;BME280;49042;47.318;19.874;2022-11-20T03:30:17;100056.50;;;1.16;100.00
62942;BME280;49042;47.318;19.874;2022-11-20T03:33:18;100059.94;;;1.17;100.00
62942;BME280;49042;47.318;19.874;2022-11-20T03:36:20;100059.31;;;1.35;99.92
62942;BME280;49042;47.318;19.874;2022-11-20T03:39:22;100049.34;;;1.39;99.62
62942;BME280;49042;47.318;19.874;2022-11-20T03:42:24;100054.28;;;1.36;99.84
62942;BME280;49042;47.318;19.874;2022-11-20T03:45:44;100050.81;;;1.36;99.81
62942;BME280;49042;47.318;19.874;2022-11-20T03:48:46;100031.19;;;1.23;100.00
62942;BME280;49042;47.318;19.874;2022-11-20T03:51:52;100032.94;;;1.24;100.00
62942;BME280;49042;47.318;19.874;2022-11-20T03:54:54;100037.16;;;1.08;100.00
62942;BME280;49042;47.318;19.874;2022-11-20T03:57:55;100032.06;;;1.37;100.00
62942;BME280;49042;47.318;19.874;2022-11-20T04:00:57;100032.88;;;1.22;100.00
62942;BME280;49042;47.318;19.874;2022-11-20T04:03:59;100032.34;;;1.28;100.00
62942;BME280;49042;47.318;19.874;2022-11-20T04:07:00;100034.41;;;1.47;100.00
62942;BME280;49042;47.318;19.874;2022-11-20T04:10:02;100056.12;;;1.53;100.00
62942;BME280;49042;47.318;19.874;2022-11-20T04:13:04;100051.91;;;1.39;100.00
62942;BME280;49042;47.318;19.874;2022-11-20T04:16:06;100042.53;;;1.40;100.00
62942;BME280;49042;47.318;19.874;2022-11-20T04:19:11;100052.97;;;1.43;100.00
62942;BME280;49042;47.318;19.874;2022-11-20T04:22:13;100048.62;;;1.42;100.00
62942;BME280;49042;47.318;19.874;2022-11-20T04:25:14;100039.84;;;1.38;100.00
62942;BME280;49042;47.318;19.874;2022-11-20T04:28:16;100035.09;;;1.31;100.00
62942;BME280;49042;47.318;19.874;2022-11-20T04:31:26;100016.81;;;1.40;100.00
62942;BME280;49042;47.318;19.874;2022-11-20T04:34:28;99998.34;;;1.32;100.00
62942;BME280;49042;47.318;19.874;2022-11-20T04:37:30;99999.13;;;1.31;100.00
62942;BME280;49042;47.318;19.874;2022-11-20T04:40:31;100014.19;;;1.25;100.00
62942;BME280;49042;47.318;19.874;2022-11-20T04:43:33;99994.00;;;1.31;100.00
62942;BME280;49042;47.318;19.874;2022-11-20T04:46:38;99986.16;;;1.14;100.00
62942;BME280;49042;47.318;19.874;2022-11-20T04:49:42;99968.28;;;1.16;100.00
62942;BME280;49042;47.318;19.874;2022-11-20T04:52:43;99956.03;;;1.12;100.00
62942;BME280;49042;47.318;19.874;2022-11-20T04:55:45;99959.84;;;1.19;100.00
62942;BME280;49042;47.318;19.874;2022-11-20T04:58:47;99940.44;;;1.24;100.00
62942;BME280;49042;47.318;19.874;2022-11-20T05:01:49;99935.25;;;1.22;100.00
62942;BME280;49042;47.318;19.874;2022-11-20T05:04:51;99930.16;;;1.53;100.00
62942;BME280;49042;47.318;19.874;2022-11-20T05:07:52;99944.34;;;1.17;100.00
62942;BME280;49042;47.318;19.874;2022-11-20T05:10:59;99939.31;;;1.19;100.00
62942;BME280;49042;47.318;19.874;2022-11-20T05:14:01;99937.25;;;1.13;100.00
62942;BME280;49042;47.318;19.874;2022-11-20T05:17:03;99922.50;;;0.95;100.00
62942;BME280;49042;47.318;19.874;2022-11-20T05:20:05;99903.81;;;0.98;100.00
62942;BME280;49042;47.318;19.874;2022-11-20T05:23:06;99917.44;;;0.96;100.00
62942;BME280;49042;47.318;19.874;2022-11-20T05:26:14;99920.81;;;0.82;100.00
62942;BME280;49042;47.318;19.874;2022-11-20T05:29:16;99923.22;;;1.08;100.00
62942;BME280;49042;47.318;19.874;2022-11-20T05:32:17;99939.25;;;1.03;100.00
62942;BME280;49042;47.318;19.874;2022-11-20T05:35:19;99934.44;;;0.94;100.00
62942;BME280;49042;47.318;19.874;2022-11-20T05:38:21;99941.31;;;0.95;100.00
62942;BME280;49042;47.318;19.874;2022-11-20T05:41:22;99925.97;;;0.82;100.00
62942;BME280;49042;47.318;19.874;2022-11-20T05:44:24;99915.38;;;0.91;100.00
62942;BME280;49042;47.318;19.874;2022-11-20T05:47:27;99914.59;;;0.92;100.00
62942;BME280;49042;47.318;19.874;2022-11-20T05:50:29;99935.25;;;0.80;100.00
62942;BME280;49042;47.318;19.874;2022-11-20T05:53:32;99943.81;;;0.94;100.00
62942;BME280;49042;47.318;19.874;2022-11-20T05:56:34;99951.94;;;0.87;100.00
62942;BME280;49042;47.318;19.874;2022-11-20T05:59:36;99950.69;;;0.66;100.00
62942;BME280;49042;47.318;19.874;2022-11-20T06:02:37;99946.44;;;0.67;100.00
62942;BME280;49042;47.318;19.874;2022-11-20T06:05:39;99958.38;;;0.66;100.00
62942;BME280;49042;47.318;19.874;2022-11-20T06:08:41;99961.81;;;0.80;100.00
62942;BME280;49042;47.318;19.874;2022-11-20T06:11:43;99963.41;;;0.64;100.00
62942;BME280;49042;47.318;19.874;2022-11-20T06:14:44;99956.91;;;0.70;100.00
62942;BME280;49042;47.318;19.874;2022-11-20T06:17:46;99952.03;;;0.74;100.00
62942;BME280;49042;47.318;19.874;2022-11-20T06:20:47;99944.62;;;0.79;100.00
62942;BME280;49042;47.318;19.874;2022-11-20T06:23:50;99959.25;;;0.80;100.00
62942;BME280;49042;47.318;19.874;2022-11-20T06:26:53;99958.19;;;0.77;100.00
62942;BME280;49042;47.318;19.874;2022-11-20T06:29:54;99955.41;;;0.73;100.00
62942;BME280;49042;47.318;19.874;2022-11-20T06:32:56;99953.03;;;0.77;100.00
62942;BME280;49042;47.318;19.874;2022-11-20T06:35:59;99946.41;;;0.80;100.00
62942;BME280;49042;47.318;19.874;2022-11-20T06:39:06;99954.19;;;0.82;100.00
62942;BME280;49042;47.318;19.874;2022-11-20T06:42:07;99956.75;;;0.95;100.00
62942;BME280;49042;47.318;19.874;2022-11-20T06:45:09;99965.31;;;1.10;100.00
62942;BME280;49042;47.318;19.874;2022-11-20T06:48:11;99958.31;;;1.07;100.00
62942;BME280;49042;47.318;19.874;2022-11-20T06:51:13;99961.97;;;0.97;100.00
62942;BME280;49042;47.318;19.874;2022-11-20T06:54:14;99974.41;;;1.04;100.00
62942;BME280;49042;47.318;19.874;2022-11-20T06:57:16;99978.13;;;1.10;100.00
62942;BME280;49042;47.318;19.874;2022-11-20T07:00:18;99978.13;;;1.10;100.00
62942;BME280;49042;47.318;19.874;2022-11-20T07:03:19;99967.56;;;1.19;100.00
62942;BME280;49042;47.318;19.874;2022-11-20T07:06:21;99969.16;;;1.16;100.00
62942;BME280;49042;47.318;19.874;2022-11-20T07:09:22;99955.97;;;1.25;100.00
62942;BME280;49042;47.318;19.874;2022-11-20T07:12:24;99934.47;;;1.23;100.00
62942;BME280;49042;47.318;19.874;2022-11-20T07:15:26;99926.81;;;0.96;100.00
62942;BME280;49042;47.318;19.874;2022-11-20T07:18:28;99940.63;;;1.12;100.00
62942;BME280;49042;47.318;19.874;2022-11-20T07:21:30;99948.28;;;1.25;100.00
62942;BME280;49042;47.318;19.874;2022-11-20T07:24:31;99967.16;;;1.26;100.00
62942;BME280;49042;47.318;19.874;2022-11-20T07:27:33;99976.91;;;1.32;100.00
62942;BME280;49042;47.318;19.874;2022-11-20T07:30:35;99971.53;;;1.42;100.00
62942;BME280;49042;47.318;19.874;2022-11-20T07:33:37;99993.87;;;1.43;100.00
62942;BME280;49042;47.318;19.874;2022-11-20T07:36:39;99989.09;;;1.49;100.00
62942;BME280;49042;47.318;19.874;2022-11-20T07:39:41;100000.37;;;1.52;100.00
62942;BME280;49042;47.318;19.874;2022-11-20T07:42:49;99985.78;;;1.66;100.00
62942;BME280;49042;47.318;19.874;2022-11-20T07:45:51;100019.47;;;1.70;100.00
62942;BME280;49042;47.318;19.874;2022-11-20T07:48:53;100024.59;;;1.70;100.00
62942;BME280;49042;47.318;19.874;2022-11-20T07:51:55;100016.69;;;1.96;100.00
62942;BME280;49042;47.318;19.874;2022-11-20T07:55:18;100011.34;;;1.93;100.00
62942;BME280;49042;47.318;19.874;2022-11-20T07:58:20;99999.22;;;1.90;100.00
62942;BME280;49042;47.318;19.874;2022-11-20T08:01:22;99991.56;;;1.92;100.00
62942;BME280;49042;47.318;19.874;2022-11-20T08:04:24;100002.50;;;2.03;100.00
62942;BME280;49042;47.318;19.874;2022-11-20T08:07:25;100003.03;;;2.12;100.00
62942;BME280;49042;47.318;19.874;2022-11-20T08:10:27;99990.16;;;2.12;100.00
62942;BME280;49042;47.318;19.874;2022-11-20T08:13:28;99993.47;;;2.25;100.00
62942;BME280;49042;47.318;19.874;2022-11-20T08:16:49;100002.16;;;2.42;100.00
62942;BME280;49042;47.318;19.874;2022-11-20T08:19:51;100012.56;;;2.76;100.00
62942;BME280;49042;47.318;19.874;2022-11-20T08:22:52;100013.94;;;3.01;98.95
62942;BME280;49042;47.318;19.874;2022-11-20T08:25:54;100024.09;;;2.83;97.42
62942;BME280;49042;47.318;19.874;2022-11-20T08:28:56;100025.72;;;2.81;98.07
62942;BME280;49042;47.318;19.874;2022-11-20T08:31:58;100034.69;;;3.04;98.45
62942;BME280;49042;47.318;19.874;2022-11-20T08:35:00;100037.94;;;3.32;96.54
62942;BME280;49042;47.318;19.874;2022-11-20T08:38:02;100046.34;;;3.29;96.20
62942;BME280;49042;47.318;19.874;2022-11-20T08:41:05;100039.38;;;3.12;96.43
62942;BME280;49042;47.318;19.874;2022-11-20T08:44:25;100051.13;;;3.21;94.80
62942;BME280;49042;47.318;19.874;2022-11-20T08:47:26;100062.81;;;3.31;93.24
62942;BME280;49042;47.318;19.874;2022-11-20T08:50:28;100046.94;;;3.40;93.83
62942;BME280;49042;47.318;19.874;2022-11-20T08:53:32;100037.37;;;3.55;93.92
62942;BME280;49042;47.318;19.874;2022-11-20T08:56:34;100044.63;;;3.62;92.08
62942;BME280;49042;47.318;19.874;2022-11-20T08:59:36;100050.94;;;3.67;92.32
62942;BME280;49042;47.318;19.874;2022-11-20T09:02:58;100053.97;;;3.60;92.51
62942;BME280;49042;47.318;19.874;2022-11-20T09:06:05;100054.94;;;3.62;91.86
62942;BME280;49042;47.318;19.874;2022-11-20T09:09:07;100048.81;;;3.77;91.29
62942;BME280;49042;47.318;19.874;2022-11-20T09:12:09;100047.25;;;4.14;89.59
62942;BME280;49042;47.318;19.874;2022-11-20T09:15:10;100060.72;;;5.15;82.49
62942;BME280;49042;47.318;19.874;2022-11-20T09:18:12;100050.41;;;5.55;82.04
62942;BME280;49042;47.318;19.874;2022-11-20T09:21:14;100048.00;;;6.18;79.04
62942;BME280;49042;47.318;19.874;2022-11-20T09:24:16;100047.19;;;7.30;71.66
62942;BME280;49042;47.318;19.874;2022-11-20T09:27:17;100032.88;;;7.64;69.16
62942;BME280;49042;47.318;19.874;2022-11-20T09:30:23;100009.84;;;7.49;68.62
62942;BME280;49042;47.318;19.874;2022-11-20T09:33:24;100013.84;;;8.14;65.83
62942;BME280;49042;47.318;19.874;2022-11-20T09:36:26;100024.44;;;7.95;64.95
62942;BME280;49042;47.318;19.874;2022-11-20T09:39:27;100037.34;;;7.44;67.63
62942;BME280;49042;47.318;19.874;2022-11-20T09:46:12;100014.13;;;7.24;69.80
62942;BME280;49042;47.318;19.874;2022-11-20T09:55:51;100014.06;;;7.45;69.45
62942;BME280;49042;47.318;19.874;2022-11-20T09:58:55;99995.59;;;7.87;67.27
62942;BME280;49042;47.318;19.874;2022-11-20T10:02:00;100004.19;;;7.36;66.82
62942;BME280;49042;47.318;19.874;2022-11-20T10:05:18;100014.69;;;6.93;69.73
62942;BME280;49042;47.318;19.874;2022-11-20T10:22:50;99973.62;;;6.37;73.64
62942;BME280;49042;47.318;19.874;2022-11-20T10:25:30;99981.47;;;6.38;74.24
62942;BME280;49042;47.318;19.874;2022-11-20T10:28:40;99985.84;;;6.18;75.55
62942;BME280;49042;47.318;19.874;2022-11-20T10:32:02;100002.87;;;6.13;75.44
62942;BME280;49042;47.318;19.874;2022-11-20T10:38:26;100009.69;;;6.10;74.14
62942;BME280;49042;47.318;19.874;2022-11-20T10:41:38;100024.69;;;6.18;73.33
62942;BME280;49042;47.318;19.874;2022-11-20T10:44:49;100033.31;;;6.18;73.23
62942;BME280;49042;47.318;19.874;2022-11-20T11:01:19;99965.56;;;7.69;70.33
62942;BME280;49042;47.318;19.874;2022-11-20T11:07:37;99980.16;;;8.44;61.55
62942;BME280;49042;47.318;19.874;2022-11-20T11:11:17;99989.31;;;8.06;62.35
62942;BME280;49042;47.318;19.874;2022-11-20T11:14:20;100002.03;;;7.98;62.46
62942;BME280;49042;47.318;19.874;2022-11-20T11:17:28;99998.09;;;7.84;64.00
62942;BME280;49042;47.318;19.874;2022-11-20T11:20:30;99984.72;;;7.73;64.75
62942;BME280;49042;47.318;19.874;2022-11-20T11:23:36;99982.59;;;7.87;65.41
62942;BME280;49042;47.318;19.874;2022-11-20T11:26:39;99965.59;;;7.70;67.11
62942;BME280;49042;47.318;19.874;2022-11-20T11:29:41;99952.16;;;7.82;67.13
62942;BME280;49042;47.318;19.874;2022-11-20T11:32:42;99940.94;;;7.57;67.15
62942;BME280;49042;47.318;19.874;2022-11-20T11:35:47;99957.06;;;7.48;66.35
62942;BME280;49042;47.318;19.874;2022-11-20T11:38:52;99965.28;;;7.36;67.21
62942;BME280;49042;47.318;19.874;2022-11-20T11:41:55;99954.09;;;7.37;67.69
62942;BME280;49042;47.318;19.874;2022-11-20T11:44:59;99953.41;;;7.43;69.10
62942;BME280;49042;47.318;19.874;2022-11-20T11:48:08;99950.69;;;7.65;69.37
62942;BME280;49042;47.318;19.874;2022-11-20T11:51:10;99939.44;;;7.64;69.44
62942;BME280;49042;47.318;19.874;2022-11-20T11:54:19;99942.03;;;7.64;68.96
62942;BME280;49042;47.318;19.874;2022-11-20T12:00:24;99957.06;;;7.48;71.22
62942;BME280;49042;47.318;19.874;2022-11-20T12:03:35;99960.88;;;7.34;72.25
62942;BME280;49042;47.318;19.874;2022-11-20T12:06:39;99964.09;;;7.53;72.26
62942;BME280;49042;47.318;19.874;2022-11-20T12:09:49;99967.06;;;7.37;72.10
62942;BME280;49042;47.318;19.874;2022-11-20T12:13:01;99978.28;;;7.13;75.13
62942;BME280;49042;47.318;19.874;2022-11-20T12:16:04;99982.88;;;7.21;74.20
62942;BME280;49042;47.318;19.874;2022-11-20T12:19:13;99978.06;;;7.32;75.67
62942;BME280;49042;47.318;19.874;2022-11-20T12:22:41;99987.31;;;7.23;74.60
62942;BME280;49042;47.318;19.874;2022-11-20T12:25:48;99991.25;;;7.13;75.61
62942;BME280;49042;47.318;19.874;2022-11-20T12:29:03;99989.78;;;7.20;75.11
62942;BME280;49042;47.318;19.874;2022-11-20T12:35:32;99978.28;;;7.13;75.52
62942;BME280;49042;47.318;19.874;2022-11-20T12:39:05;99977.03;;;7.03;75.79
62942;BME280;49042;47.318;19.874;2022-11-20T12:46:16;99983.19;;;7.05;75.70
62942;BME280;49042;47.318;19.874;2022-11-20T12:49:34;99975.75;;;6.92;76.62
62942;BME280;49042;47.318;19.874;2022-11-20T12:52:56;99967.88;;;6.89;76.15
62942;BME280;49042;47.318;19.874;2022-11-20T13:06:17;99952.56;;;6.50;78.75
62942;BME280;49042;47.318;19.874;2022-11-20T13:09:22;99957.06;;;6.55;79.67
62942;BME280;49042;47.318;19.874;2022-11-20T13:12:45;99958.16;;;6.38;81.16
62942;BME280;49042;47.318;19.874;2022-11-20T13:19:15;99963.22;;;6.35;82.80
62942;BME280;49042;47.318;19.874;2022-11-20T13:22:49;99959.53;;;6.30;83.54
62942;BME280;49042;47.318;19.874;2022-11-20T13:25:49;99957.97;;;6.34;83.77
62942;BME280;49042;47.318;19.874;2022-11-20T13:29:19;99959.41;;;6.27;82.91
62942;BME280;49042;47.318;19.874;2022-11-20T13:32:21;99961.34;;;6.32;84.56
62942;BME280;49042;47.318;19.874;2022-11-20T13:38:27;99949.28;;;6.33;85.49
62942;BME280;49042;47.318;19.874;2022-11-20T13:41:35;99936.88;;;6.24;86.49
62942;BME280;49042;47.318;19.874;2022-11-20T13:44:44;99928.12;;;6.43;85.04
62942;BME280;49042;47.318;19.874;2022-11-20T13:47:49;99916.13;;;6.46;85.24
62942;BME280;49042;47.318;19.874;2022-11-20T13:51:03;99917.19;;;6.51;85.50
62942;BME280;49042;47.318;19.874;2022-11-20T13:54:21;99916.63;;;6.37;86.06
62942;BME280;49042;47.318;19.874;2022-11-20T14:01:10;99925.87;;;6.74;82.01
62942;BME280;49042;47.318;19.874;2022-11-20T14:04:21;99926.44;;;6.23;86.17
62942;BME280;49042;47.318;19.874;2022-11-20T14:07:35;99938.59;;;6.47;84.46
62942;BME280;49042;47.318;19.874;2022-11-20T14:10:38;99933.06;;;6.37;85.11
62942;BME280;49042;47.318;19.874;2022-11-20T14:14:01;99949.03;;;6.05;85.29
62942;BME280;49042;47.318;19.874;2022-11-20T14:17:08;99951.28;;;5.97;86.42
62942;BME280;49042;47.318;19.874;2022-11-20T14:20:14;99948.41;;;5.70;88.14
62942;BME280;49042;47.318;19.874;2022-11-20T14:23:27;99952.16;;;5.17;92.14
62942;BME280;49042;47.318;19.874;2022-11-20T14:26:31;99973.88;;;5.00;94.00
62942;BME280;49042;47.318;19.874;2022-11-20T14:29:36;99977.22;;;4.79;95.84
62942;BME280;49042;47.318;19.874;2022-11-20T14:32:38;99971.66;;;5.28;92.73
62942;BME280;49042;47.318;19.874;2022-11-20T14:35:45;99976.44;;;5.00;95.04
62942;BME280;49042;47.318;19.874;2022-11-20T14:38:48;99973.38;;;4.53;98.08
62942;BME280;49042;47.318;19.874;2022-11-20T14:41:51;99967.25;;;4.87;97.09
62942;BME280;49042;47.318;19.874;2022-11-20T14:44:58;99969.59;;;4.82;97.15
62942;BME280;49042;47.318;19.874;2022-11-20T14:48:01;99965.91;;;4.77;98.14
62942;BME280;49042;47.318;19.874;2022-11-20T14:51:03;99984.09;;;4.79;98.96
62942;BME280;49042;47.318;19.874;2022-11-20T15:00:25;99993.66;;;5.00;97.91
62942;BME280;49042;47.318;19.874;2022-11-20T15:03:38;99999.50;;;4.77;99.44
62942;BME280;49042;47.318;19.874;2022-11-20T15:06:50;100003.63;;;4.74;100.00
62942;BME280;49042;47.318;19.874;2022-11-20T15:10:05;99993.28;;;4.92;98.88
62942;BME280;49042;47.318;19.874;2022-11-20T15:13:13;99986.19;;;4.88;99.36
62942;BME280;49042;47.318;19.874;2022-11-20T15:16:20;99992.47;;;4.93;98.54
62942;BME280;49042;47.318;19.874;2022-11-20T15:19:24;100002.53;;;4.87;98.45
62942;BME280;49042;47.318;19.874;2022-11-20T15:22:26;100006.97;;;4.89;99.19
62942;BME280;49042;47.318;19.874;2022-11-20T15:25:28;100005.03;;;4.85;100.00
62942;BME280;49042;47.318;19.874;2022-11-20T15:28:30;100002.81;;;4.75;100.00
62942;BME280;49042;47.318;19.874;2022-11-20T15:31:33;99997.16;;;4.64;100.00
62942;BME280;49042;47.318;19.874;2022-11-20T15:34:39;99999.59;;;4.79;100.00
62942;BME280;49042;47.318;19.874;2022-11-20T15:37:41;99998.91;;;4.83;100.00
62942;BME280;49042;47.318;19.874;2022-11-20T15:40:43;99995.75;;;4.70;100.00
62942;BME280;49042;47.318;19.874;2022-11-20T15:43:45;99990.81;;;4.75;100.00
62942;BME280;49042;47.318;19.874;2022-11-20T15:46:48;99992.66;;;4.41;100.00
62942;BME280;49042;47.318;19.874;2022-11-20T15:49:50;100000.63;;;4.27;100.00
62942;BME280;49042;47.318;19.874;2022-11-20T15:52:52;99993.78;;;4.11;100.00
62942;BME280;49042;47.318;19.874;2022-11-20T15:55:54;99988.38;;;4.06;100.00
62942;BME280;49042;47.318;19.874;2022-11-20T15:58:56;99980.22;;;3.80;100.00
62942;BME280;49042;47.318;19.874;2022-11-20T16:01:59;99984.25;;;3.92;100.00
62942;BME280;49042;47.318;19.874;2022-11-20T16:05:01;99985.13;;;3.75;100.00
62942;BME280;49042;47.318;19.874;2022-11-20T16:08:03;99989.25;;;3.72;100.00
62942;BME280;49042;47.318;19.874;2022-11-20T16:11:15;99986.34;;;3.66;100.00
62942;BME280;49042;47.318;19.874;2022-11-20T16:14:18;99994.16;;;3.50;100.00
62942;BME280;49042;47.318;19.874;2022-11-20T16:17:41;99979.50;;;3.66;100.00
62942;BME280;49042;47.318;19.874;2022-11-20T16:20:49;99985.78;;;3.38;100.00
62942;BME280;49042;47.318;19.874;2022-11-20T16:23:51;99983.53;;;3.27;100.00
62942;BME280;49042;47.318;19.874;2022-11-20T16:26:54;99985.22;;;3.27;100.00
62942;BME280;49042;47.318;19.874;2022-11-20T16:29:56;99991.66;;;3.18;100.00
62942;BME280;49042;47.318;19.874;2022-11-20T16:33:00;99994.66;;;2.94;100.00
62942;BME280;49042;47.318;19.874;2022-11-20T16:36:13;99994.41;;;3.21;100.00
62942;BME280;49042;47.318;19.874;2022-11-20T16:39:15;99990.59;;;3.15;100.00
62942;BME280;49042;47.318;19.874;2022-11-20T16:42:24;99986.47;;;3.02;100.00
62942;BME280;49042;47.318;19.874;2022-11-20T16:45:26;99994.00;;;3.14;100.00
62942;BME280;49042;47.318;19.874;2022-11-20T16:48:34;99985.69;;;3.19;100.00
62942;BME280;49042;47.318;19.874;2022-11-20T16:51:36;99977.50;;;3.60;100.00
62942;BME280;49042;47.318;19.874;2022-11-20T16:54:38;99977.56;;;3.62;100.00
62942;BME280;49042;47.318;19.874;2022-11-20T16:57:41;99959.75;;;3.50;100.00
62942;BME280;49042;47.318;19.874;2022-11-20T17:00:44;99960.06;;;3.39;100.00
62942;BME280;49042;47.318;19.874;2022-11-20T17:04:04;99951.62;;;3.25;100.00
62942;BME280;49042;47.318;19.874;2022-11-20T17:07:07;99939.94;;;3.15;100.00
62942;BME280;49042;47.318;19.874;2022-11-20T17:10:09;99935.84;;;3.19;100.00
62942;BME280;49042;47.318;19.874;2022-11-20T17:13:11;99932.66;;;2.91;100.00
62942;BME280;49042;47.318;19.874;2022-11-20T17:16:16;99934.16;;;2.71;100.00
62942;BME280;49042;47.318;19.874;2022-11-20T17:19:19;99929.16;;;2.57;100.00
62942;BME280;49042;47.318;19.874;2022-11-20T17:22:22;99935.19;;;2.58;100.00
62942;BME280;49042;47.318;19.874;2022-11-20T17:25:24;99929.38;;;2.62;100.00
62942;BME280;49042;47.318;19.874;2022-11-20T17:28:26;99925.37;;;2.67;100.00
62942;BME280;49042;47.318;19.874;2022-11-20T17:31:30;99917.69;;;2.52;100.00
62942;BME280;49042;47.318;19.874;2022-11-20T17:34:33;99917.75;;;2.37;100.00